Maple, North Dakota
Current Conditions -  °F | °C
As of 12:55 AM on Monday 24 Nov 2014 (Local Time) from KGWR Reporting Station
Overcast Overcast  
Wind Chill:   Ceiling: 1500
Heat Index: 19°   Visibility: 4mi
Dew Point: 12°   Wind: 18mph
Humidity: 74%   Direction: 340°NNW
Pressure: 29.6"   Gusts: NA
Location:  46.1988°N, 98.3822°W
Report Text: KGWR 240655Z AUTO 34016KT 4SM OVC015 M07/M11 A2960 RMK A01 P000
Loading
Personal Weather Stations






























Interactive Weather Map New forecast layout! Learn more

10-Day Weather Forecast

Advertisements
Track Severe Weather on mobile